sensor_id;sensor_type;location;lat;lon;timestamp;pressure;altitude;pressure_sealevel;temperature;humidity
84522;BME280;74758;50.066;20.008;2024-02-21T00:00:11;99930.64;;;6.72;70.04
84522;BME280;74758;50.066;20.008;2024-02-21T00:01:17;99929.45;;;6.72;70.07
84522;BME280;74758;50.066;20.008;2024-02-21T00:02:19;99926.63;;;6.72;70.05
84522;BME280;74758;50.066;20.008;2024-02-21T00:03:21;99932.14;;;6.73;69.85
84522;BME280;74758;50.066;20.008;2024-02-21T00:04:22;99926.99;;;6.74;69.86
84522;BME280;74758;50.066;20.008;2024-02-21T00:05:24;99932.79;;;6.77;69.76
84522;BME280;74758;50.066;20.008;2024-02-21T00:06:26;99930.23;;;6.78;69.71
84522;BME280;74758;50.066;20.008;2024-02-21T00:07:28;99928.95;;;6.79;69.64
84522;BME280;74758;50.066;20.008;2024-02-21T00:08:30;99929.21;;;6.80;69.73
84522;BME280;74758;50.066;20.008;2024-02-21T00:09:32;99932.66;;;6.81;69.17
84522;BME280;74758;50.066;20.008;2024-02-21T00:10:34;99931.29;;;6.81;69.05
84522;BME280;74758;50.066;20.008;2024-02-21T00:11:36;99929.67;;;6.82;68.99
84522;BME280;74758;50.066;20.008;2024-02-21T00:12:39;99930.86;;;6.82;69.09
84522;BME280;74758;50.066;20.008;2024-02-21T00:13:41;99930.02;;;6.82;68.98
84522;BME280;74758;50.066;20.008;2024-02-21T00:14:42;99930.52;;;6.82;68.98
84522;BME280;74758;50.066;20.008;2024-02-21T00:15:45;99928.16;;;6.81;68.47
84522;BME280;74758;50.066;20.008;2024-02-21T00:16:47;99928.52;;;6.81;68.65
84522;BME280;74758;50.066;20.008;2024-02-21T00:17:48;99926.81;;;6.80;68.58
84522;BME280;74758;50.066;20.008;2024-02-21T00:18:50;99931.04;;;6.79;68.46
84522;BME280;74758;50.066;20.008;2024-02-21T00:19:52;99931.10;;;6.79;68.17
84522;BME280;74758;50.066;20.008;2024-02-21T00:20:54;99930.80;;;6.78;68.28
84522;BME280;74758;50.066;20.008;2024-02-21T00:21:56;99935.09;;;6.76;68.25
84522;BME280;74758;50.066;20.008;2024-02-21T00:22:57;99933.05;;;6.75;68.11
84522;BME280;74758;50.066;20.008;2024-02-21T00:23:59;99938.48;;;6.75;68.32
84522;BME280;74758;50.066;20.008;2024-02-21T00:25:01;99934.77;;;6.75;68.28
84522;BME280;74758;50.066;20.008;2024-02-21T00:26:03;99936.31;;;6.76;68.20
84522;BME280;74758;50.066;20.008;2024-02-21T00:27:05;99935.75;;;6.77;68.04
84522;BME280;74758;50.066;20.008;2024-02-21T00:28:07;99937.98;;;6.77;68.01
84522;BME280;74758;50.066;20.008;2024-02-21T00:29:08;99935.36;;;6.77;67.85
84522;BME280;74758;50.066;20.008;2024-02-21T00:30:11;99936.35;;;6.76;67.79
84522;BME280;74758;50.066;20.008;2024-02-21T00:31:12;99931.77;;;6.74;67.51
84522;BME280;74758;50.066;20.008;2024-02-21T00:32:14;99934.60;;;6.73;67.86
84522;BME280;74758;50.066;20.008;2024-02-21T00:33:17;99933.17;;;6.73;67.83
84522;BME280;74758;50.066;20.008;2024-02-21T00:34:19;99932.42;;;6.71;67.78
84522;BME280;74758;50.066;20.008;2024-02-21T00:35:20;99932.58;;;6.69;67.80
84522;BME280;74758;50.066;20.008;2024-02-21T00:36:23;99932.42;;;6.65;67.50
84522;BME280;74758;50.066;20.008;2024-02-21T00:37:25;99931.93;;;6.62;67.61
84522;BME280;74758;50.066;20.008;2024-02-21T00:38:27;99929.54;;;6.59;67.98
84522;BME280;74758;50.066;20.008;2024-02-21T00:39:28;99932.54;;;6.56;67.95
84522;BME280;74758;50.066;20.008;2024-02-21T00:40:31;99930.70;;;6.52;68.08
84522;BME280;74758;50.066;20.008;2024-02-21T00:41:32;99929.14;;;6.49;68.52
84522;BME280;74758;50.066;20.008;2024-02-21T00:42:34;99926.59;;;6.44;68.71
84522;BME280;74758;50.066;20.008;2024-02-21T00:43:36;99929.73;;;6.42;68.70
84522;BME280;74758;50.066;20.008;2024-02-21T00:44:38;99927.27;;;6.39;69.03
84522;BME280;74758;50.066;20.008;2024-02-21T00:45:40;99927.95;;;6.36;69.28
84522;BME280;74758;50.066;20.008;2024-02-21T00:46:42;99923.05;;;6.34;69.22
84522;BME280;74758;50.066;20.008;2024-02-21T00:47:43;99922.87;;;6.31;69.52
84522;BME280;74758;50.066;20.008;2024-02-21T00:48:46;99922.13;;;6.29;69.49
84522;BME280;74758;50.066;20.008;2024-02-21T00:49:48;99918.70;;;6.25;69.81
84522;BME280;74758;50.066;20.008;2024-02-21T00:50:50;99917.45;;;6.23;70.28
84522;BME280;74758;50.066;20.008;2024-02-21T00:51:51;99915.53;;;6.20;70.29
84522;BME280;74758;50.066;20.008;2024-02-21T00:52:53;99912.52;;;6.18;70.35
84522;BME280;74758;50.066;20.008;2024-02-21T00:53:55;99910.35;;;6.17;70.42
84522;BME280;74758;50.066;20.008;2024-02-21T00:54:57;99912.50;;;6.16;70.95
84522;BME280;74758;50.066;20.008;2024-02-21T00:55:58;99909.66;;;6.14;71.02
84522;BME280;74758;50.066;20.008;2024-02-21T00:57:00;99910.52;;;6.14;70.92
84522;BME280;74758;50.066;20.008;2024-02-21T00:58:02;99909.84;;;6.14;70.96
84522;BME280;74758;50.066;20.008;2024-02-21T00:59:03;99911.89;;;6.14;71.20
84522;BME280;74758;50.066;20.008;2024-02-21T01:00:06;99908.45;;;6.13;71.11
84522;BME280;74758;50.066;20.008;2024-02-21T01:01:09;99910.73;;;6.13;71.32
84522;BME280;74758;50.066;20.008;2024-02-21T01:02:11;99905.25;;;6.12;71.60
84522;BME280;74758;50.066;20.008;2024-02-21T01:03:13;99908.58;;;6.12;71.58
84522;BME280;74758;50.066;20.008;2024-02-21T01:04:15;99909.34;;;6.11;71.66
84522;BME280;74758;50.066;20.008;2024-02-21T01:05:17;99909.55;;;6.10;71.67
84522;BME280;74758;50.066;20.008;2024-02-21T01:06:20;99905.44;;;6.09;72.02
84522;BME280;74758;50.066;20.008;2024-02-21T01:07:22;99907.98;;;6.07;71.78
84522;BME280;74758;50.066;20.008;2024-02-21T01:08:24;99908.04;;;6.06;71.87
84522;BME280;74758;50.066;20.008;2024-02-21T01:09:25;99905.34;;;6.04;71.89
84522;BME280;74758;50.066;20.008;2024-02-21T01:10:27;99904.27;;;6.01;71.79
84522;BME280;74758;50.066;20.008;2024-02-21T01:11:29;99900.97;;;6.01;71.73
84522;BME280;74758;50.066;20.008;2024-02-21T01:12:30;99902.79;;;6.00;72.20
84522;BME280;74758;50.066;20.008;2024-02-21T01:13:32;99898.83;;;5.99;72.20
84522;BME280;74758;50.066;20.008;2024-02-21T01:14:34;99903.26;;;6.01;72.16
84522;BME280;74758;50.066;20.008;2024-02-21T01:15:36;99902.47;;;6.03;72.21
84522;BME280;74758;50.066;20.008;2024-02-21T01:16:37;99901.92;;;6.03;72.11
84522;BME280;74758;50.066;20.008;2024-02-21T01:17:39;99904.53;;;6.03;72.10
84522;BME280;74758;50.066;20.008;2024-02-21T01:18:42;99904.94;;;6.05;72.22
84522;BME280;74758;50.066;20.008;2024-02-21T01:19:46;99904.98;;;6.07;72.01
84522;BME280;74758;50.066;20.008;2024-02-21T01:20:48;99903.81;;;6.09;72.04
84522;BME280;74758;50.066;20.008;2024-02-21T01:21:49;99903.87;;;6.12;72.10
84522;BME280;74758;50.066;20.008;2024-02-21T01:22:51;99907.10;;;6.13;72.28
84522;BME280;74758;50.066;20.008;2024-02-21T01:23:53;99901.58;;;6.14;72.44
84522;BME280;74758;50.066;20.008;2024-02-21T01:24:55;99903.76;;;6.16;72.09
84522;BME280;74758;50.066;20.008;2024-02-21T01:25:56;99904.48;;;6.18;72.42
84522;BME280;74758;50.066;20.008;2024-02-21T01:26:58;99903.47;;;6.20;71.91
84522;BME280;74758;50.066;20.008;2024-02-21T01:28:00;99902.95;;;6.20;72.62
84522;BME280;74758;50.066;20.008;2024-02-21T01:29:02;99899.42;;;6.21;71.95
84522;BME280;74758;50.066;20.008;2024-02-21T01:30:04;99902.02;;;6.21;72.27
84522;BME280;74758;50.066;20.008;2024-02-21T01:31:07;99898.58;;;6.20;72.18
84522;BME280;74758;50.066;20.008;2024-02-21T01:32:09;99898.10;;;6.20;72.09
84522;BME280;74758;50.066;20.008;2024-02-21T01:33:10;99896.25;;;6.19;72.10
84522;BME280;74758;50.066;20.008;2024-02-21T01:34:13;99894.15;;;6.19;72.12
84522;BME280;74758;50.066;20.008;2024-02-21T01:35:15;99890.80;;;6.19;72.27
84522;BME280;74758;50.066;20.008;2024-02-21T01:36:17;99889.23;;;6.19;72.14
84522;BME280;74758;50.066;20.008;2024-02-21T01:37:20;99885.81;;;6.18;71.97
84522;BME280;74758;50.066;20.008;2024-02-21T01:38:22;99886.58;;;6.17;71.98
84522;BME280;74758;50.066;20.008;2024-02-21T01:39:23;99883.84;;;6.16;72.36
84522;BME280;74758;50.066;20.008;2024-02-21T01:40:25;99882.99;;;6.16;72.09
84522;BME280;74758;50.066;20.008;2024-02-21T01:41:29;99882.14;;;6.16;72.55
84522;BME280;74758;50.066;20.008;2024-02-21T01:42:32;99881.34;;;6.14;72.15
84522;BME280;74758;50.066;20.008;2024-02-21T01:43:33;99880.38;;;6.13;72.16
84522;BME280;74758;50.066;20.008;2024-02-21T01:44:35;99878.02;;;6.12;72.35
84522;BME280;74758;50.066;20.008;2024-02-21T01:45:38;99877.96;;;6.10;72.48
84522;BME280;74758;50.066;20.008;2024-02-21T01:46:39;99875.59;;;6.09;72.22
84522;BME280;74758;50.066;20.008;2024-02-21T01:47:42;99875.55;;;6.07;72.20
84522;BME280;74758;50.066;20.008;2024-02-21T01:48:44;99877.42;;;6.04;72.31
84522;BME280;74758;50.066;20.008;2024-02-21T01:49:47;99876.46;;;6.03;72.92
84522;BME280;74758;50.066;20.008;2024-02-21T01:50:50;99872.95;;;6.00;72.43
84522;BME280;74758;50.066;20.008;2024-02-21T01:51:53;99869.38;;;5.99;72.66
84522;BME280;74758;50.066;20.008;2024-02-21T01:52:56;99875.59;;;5.97;72.77
84522;BME280;74758;50.066;20.008;2024-02-21T01:53:58;99875.51;;;5.96;73.21
84522;BME280;74758;50.066;20.008;2024-02-21T01:55:00;99878.09;;;5.93;72.94
84522;BME280;74758;50.066;20.008;2024-02-21T01:56:03;99874.23;;;5.91;73.01
84522;BME280;74758;50.066;20.008;2024-02-21T01:57:07;99876.23;;;5.89;73.15
84522;BME280;74758;50.066;20.008;2024-02-21T01:58:08;99876.01;;;5.87;72.97
84522;BME280;74758;50.066;20.008;2024-02-21T01:59:11;99873.86;;;5.85;73.65
84522;BME280;74758;50.066;20.008;2024-02-21T02:00:14;99877.03;;;5.81;73.57
84522;BME280;74758;50.066;20.008;2024-02-21T02:01:17;99877.56;;;5.78;73.53
84522;BME280;74758;50.066;20.008;2024-02-21T02:02:22;99875.79;;;5.76;73.89
84522;BME280;74758;50.066;20.008;2024-02-21T02:03:26;99876.70;;;5.72;73.98
84522;BME280;74758;50.066;20.008;2024-02-21T02:04:29;99876.64;;;5.70;73.83
84522;BME280;74758;50.066;20.008;2024-02-21T02:05:30;99880.21;;;5.69;74.17
84522;BME280;74758;50.066;20.008;2024-02-21T02:06:32;99876.08;;;5.68;74.09
84522;BME280;74758;50.066;20.008;2024-02-21T02:07:34;99875.45;;;5.67;73.92
84522;BME280;74758;50.066;20.008;2024-02-21T02:08:36;99871.81;;;5.66;73.96
84522;BME280;74758;50.066;20.008;2024-02-21T02:09:38;99869.43;;;5.66;74.17
84522;BME280;74758;50.066;20.008;2024-02-21T02:10:40;99869.63;;;5.65;73.96
84522;BME280;74758;50.066;20.008;2024-02-21T02:11:43;99870.75;;;5.64;74.01
84522;BME280;74758;50.066;20.008;2024-02-21T02:12:45;99871.98;;;5.64;74.05
84522;BME280;74758;50.066;20.008;2024-02-21T02:13:47;99869.11;;;5.63;74.12
84522;BME280;74758;50.066;20.008;2024-02-21T02:15:00;99869.89;;;5.61;74.36
84522;BME280;74758;50.066;20.008;2024-02-21T02:16:02;99864.24;;;5.59;74.47
84522;BME280;74758;50.066;20.008;2024-02-21T02:17:05;99863.40;;;5.59;74.09
84522;BME280;74758;50.066;20.008;2024-02-21T02:18:07;99858.41;;;5.58;74.42
84522;BME280;74758;50.066;20.008;2024-02-21T02:19:09;99866.09;;;5.57;74.49
84522;BME280;74758;50.066;20.008;2024-02-21T02:20:14;99870.98;;;5.57;74.34
84522;BME280;74758;50.066;20.008;2024-02-21T02:21:26;99876.39;;;5.58;74.40
84522;BME280;74758;50.066;20.008;2024-02-21T02:22:29;99871.84;;;5.58;74.38
84522;BME280;74758;50.066;20.008;2024-02-21T02:23:34;99865.80;;;5.59;74.43
84522;BME280;74758;50.066;20.008;2024-02-21T02:24:35;99863.23;;;5.61;74.43
84522;BME280;74758;50.066;20.008;2024-02-21T02:25:38;99867.65;;;5.64;74.38
84522;BME280;74758;50.066;20.008;2024-02-21T02:26:40;99863.81;;;5.63;74.24
84522;BME280;74758;50.066;20.008;2024-02-21T02:27:42;99865.21;;;5.63;73.91
84522;BME280;74758;50.066;20.008;2024-02-21T02:28:45;99864.88;;;5.63;74.71
84522;BME280;74758;50.066;20.008;2024-02-21T02:29:47;99863.23;;;5.62;74.22
84522;BME280;74758;50.066;20.008;2024-02-21T02:30:49;99860.67;;;5.61;74.51
84522;BME280;74758;50.066;20.008;2024-02-21T02:31:51;99859.98;;;5.60;74.46
84522;BME280;74758;50.066;20.008;2024-02-21T02:32:53;99859.81;;;5.60;74.55
84522;BME280;74758;50.066;20.008;2024-02-21T02:33:54;99856.72;;;5.60;74.44
84522;BME280;74758;50.066;20.008;2024-02-21T02:34:56;99857.91;;;5.60;74.43
84522;BME280;74758;50.066;20.008;2024-02-21T02:35:58;99856.35;;;5.60;74.67
84522;BME280;74758;50.066;20.008;2024-02-21T02:37:00;99855.30;;;5.60;74.51
84522;BME280;74758;50.066;20.008;2024-02-21T02:38:02;99849.54;;;5.60;74.35
84522;BME280;74758;50.066;20.008;2024-02-21T02:39:04;99851.44;;;5.61;74.53
84522;BME280;74758;50.066;20.008;2024-02-21T02:40:07;99855.93;;;5.61;74.46
84522;BME280;74758;50.066;20.008;2024-02-21T02:41:09;99853.04;;;5.63;74.20
84522;BME280;74758;50.066;20.008;2024-02-21T02:42:11;99853.13;;;5.64;74.45
84522;BME280;74758;50.066;20.008;2024-02-21T02:43:12;99854.27;;;5.66;74.34
84522;BME280;74758;50.066;20.008;2024-02-21T02:44:14;99855.04;;;5.67;74.33
84522;BME280;74758;50.066;20.008;2024-02-21T02:45:17;99853.24;;;5.68;74.23
84522;BME280;74758;50.066;20.008;2024-02-21T02:46:19;99853.93;;;5.68;74.43
84522;BME280;74758;50.066;20.008;2024-02-21T02:47:21;99849.91;;;5.68;74.12
84522;BME280;74758;50.066;20.008;2024-02-21T02:48:22;99852.01;;;5.68;74.38
84522;BME280;74758;50.066;20.008;2024-02-21T02:49:24;99850.92;;;5.69;74.28
84522;BME280;74758;50.066;20.008;2024-02-21T02:50:27;99850.09;;;5.68;74.28
84522;BME280;74758;50.066;20.008;2024-02-21T02:51:29;99855.30;;;5.68;74.51
84522;BME280;74758;50.066;20.008;2024-02-21T02:52:30;99855.66;;;5.68;74.46
84522;BME280;74758;50.066;20.008;2024-02-21T02:53:32;99852.97;;;5.67;74.18
84522;BME280;74758;50.066;20.008;2024-02-21T02:54:34;99857.11;;;5.67;74.06
84522;BME280;74758;50.066;20.008;2024-02-21T02:55:35;99852.29;;;5.66;74.44
84522;BME280;74758;50.066;20.008;2024-02-21T02:56:37;99850.02;;;5.67;74.21
84522;BME280;74758;50.066;20.008;2024-02-21T02:57:39;99849.70;;;5.66;74.29
84522;BME280;74758;50.066;20.008;2024-02-21T02:58:43;99849.17;;;5.66;74.48
84522;BME280;74758;50.066;20.008;2024-02-21T02:59:50;99851.11;;;5.66;74.39
84522;BME280;74758;50.066;20.008;2024-02-21T03:00:52;99854.72;;;5.66;74.61
84522;BME280;74758;50.066;20.008;2024-02-21T03:01:53;99854.98;;;5.68;74.32
84522;BME280;74758;50.066;20.008;2024-02-21T03:02:55;99851.83;;;5.68;74.21
84522;BME280;74758;50.066;20.008;2024-02-21T03:03:57;99849.21;;;5.68;74.45
84522;BME280;74758;50.066;20.008;2024-02-21T03:04:59;99851.39;;;5.69;74.64
84522;BME280;74758;50.066;20.008;2024-02-21T03:06:00;99850.73;;;5.69;74.53
84522;BME280;74758;50.066;20.008;2024-02-21T03:07:02;99848.23;;;5.70;74.26
84522;BME280;74758;50.066;20.008;2024-02-21T03:08:04;99849.77;;;5.70;74.48
84522;BME280;74758;50.066;20.008;2024-02-21T03:09:08;99850.05;;;5.72;74.51
84522;BME280;74758;50.066;20.008;2024-02-21T03:10:11;99848.07;;;5.72;74.16
84522;BME280;74758;50.066;20.008;2024-02-21T03:11:13;99847.83;;;5.74;74.44
84522;BME280;74758;50.066;20.008;2024-02-21T03:12:15;99844.73;;;5.76;74.43
84522;BME280;74758;50.066;20.008;2024-02-21T03:13:26;99841.47;;;5.78;74.35
84522;BME280;74758;50.066;20.008;2024-02-21T03:14:28;99842.02;;;5.80;74.22
84522;BME280;74758;50.066;20.008;2024-02-21T03:15:30;99842.60;;;5.82;74.03
84522;BME280;74758;50.066;20.008;2024-02-21T03:16:32;99839.81;;;5.85;74.03
84522;BME280;74758;50.066;20.008;2024-02-21T03:17:34;99833.20;;;5.88;74.04
84522;BME280;74758;50.066;20.008;2024-02-21T03:18:36;99831.20;;;5.90;74.04
84522;BME280;74758;50.066;20.008;2024-02-21T03:19:38;99829.77;;;5.90;74.13
84522;BME280;74758;50.066;20.008;2024-02-21T03:20:40;99826.80;;;5.91;73.89
84522;BME280;74758;50.066;20.008;2024-02-21T03:21:41;99829.88;;;5.91;74.13
84522;BME280;74758;50.066;20.008;2024-02-21T03:22:43;99827.27;;;5.92;73.86
84522;BME280;74758;50.066;20.008;2024-02-21T03:23:45;99823.66;;;5.91;73.68
84522;BME280;74758;50.066;20.008;2024-02-21T03:24:46;99828.05;;;5.90;73.83
84522;BME280;74758;50.066;20.008;2024-02-21T03:25:48;99828.79;;;5.89;73.88
84522;BME280;74758;50.066;20.008;2024-02-21T03:26:50;99829.17;;;5.89;73.87
84522;BME280;74758;50.066;20.008;2024-02-21T03:27:52;99833.13;;;5.87;74.04
84522;BME280;74758;50.066;20.008;2024-02-21T03:28:54;99832.02;;;5.85;73.80
84522;BME280;74758;50.066;20.008;2024-02-21T03:29:55;99834.18;;;5.83;73.56
84522;BME280;74758;50.066;20.008;2024-02-21T03:30:57;99835.05;;;5.83;73.62
84522;BME280;74758;50.066;20.008;2024-02-21T03:31:59;99837.36;;;5.83;73.71
84522;BME280;74758;50.066;20.008;2024-02-21T03:33:01;99834.42;;;5.82;73.50
84522;BME280;74758;50.066;20.008;2024-02-21T03:34:03;99826.98;;;5.81;73.75
84522;BME280;74758;50.066;20.008;2024-02-21T03:35:05;99830.13;;;5.81;73.57
84522;BME280;74758;50.066;20.008;2024-02-21T03:36:13;99829.44;;;5.81;73.64
84522;BME280;74758;50.066;20.008;2024-02-21T03:37:15;99833.70;;;5.80;73.84
84522;BME280;74758;50.066;20.008;2024-02-21T03:38:18;99832.16;;;5.79;73.81
84522;BME280;74758;50.066;20.008;2024-02-21T03:39:20;99832.58;;;5.78;73.90
84522;BME280;74758;50.066;20.008;2024-02-21T03:40:23;99834.86;;;5.78;73.81
84522;BME280;74758;50.066;20.008;2024-02-21T03:41:24;99834.18;;;5.78;73.95
84522;BME280;74758;50.066;20.008;2024-02-21T03:42:26;99834.70;;;5.78;73.55
84522;BME280;74758;50.066;20.008;2024-02-21T03:43:31;99835.99;;;5.77;74.03
84522;BME280;74758;50.066;20.008;2024-02-21T03:44:33;99840.92;;;5.76;74.04
84522;BME280;74758;50.066;20.008;2024-02-21T03:45:35;99840.24;;;5.75;74.03
84522;BME280;74758;50.066;20.008;2024-02-21T03:46:37;99836.46;;;5.74;74.00
84522;BME280;74758;50.066;20.008;2024-02-21T03:47:38;99833.20;;;5.73;73.76
84522;BME280;74758;50.066;20.008;2024-02-21T03:48:40;99835.14;;;5.73;73.78
84522;BME280;74758;50.066;20.008;2024-02-21T03:49:42;99836.05;;;5.72;73.72
84522;BME280;74758;50.066;20.008;2024-02-21T03:50:44;99834.74;;;5.71;74.08
84522;BME280;74758;50.066;20.008;2024-02-21T03:51:46;99832.93;;;5.69;74.08
84522;BME280;74758;50.066;20.008;2024-02-21T03:52:48;99831.36;;;5.69;73.77
84522;BME280;74758;50.066;20.008;2024-02-21T03:53:50;99827.06;;;5.68;74.01
84522;BME280;74758;50.066;20.008;2024-02-21T03:54:51;99822.25;;;5.67;73.76
84522;BME280;74758;50.066;20.008;2024-02-21T03:55:54;99821.77;;;5.67;74.05
84522;BME280;74758;50.066;20.008;2024-02-21T03:56:56;99821.40;;;5.67;74.42
84522;BME280;74758;50.066;20.008;2024-02-21T03:57:58;99828.95;;;5.66;73.91
84522;BME280;74758;50.066;20.008;2024-02-21T03:58:59;99825.72;;;5.64;74.34
84522;BME280;74758;50.066;20.008;2024-02-21T04:00:01;99826.30;;;5.64;74.36
84522;BME280;74758;50.066;20.008;2024-02-21T04:01:05;99827.36;;;5.63;74.21
84522;BME280;74758;50.066;20.008;2024-02-21T04:02:06;99829.27;;;5.63;74.42
84522;BME280;74758;50.066;20.008;2024-02-21T04:03:11;99831.36;;;5.64;73.98
84522;BME280;74758;50.066;20.008;2024-02-21T04:04:13;99829.63;;;5.64;74.10
84522;BME280;74758;50.066;20.008;2024-02-21T04:05:17;99831.27;;;5.65;74.22
84522;BME280;74758;50.066;20.008;2024-02-21T04:06:19;99831.94;;;5.65;74.17
84522;BME280;74758;50.066;20.008;2024-02-21T04:07:22;99829.66;;;5.66;74.33
84522;BME280;74758;50.066;20.008;2024-02-21T04:08:24;99827.83;;;5.67;74.31
84522;BME280;74758;50.066;20.008;2024-02-21T04:09:25;99827.23;;;5.68;74.20
84522;BME280;74758;50.066;20.008;2024-02-21T04:10:27;99828.06;;;5.69;74.23
84522;BME280;74758;50.066;20.008;2024-02-21T04:11:29;99826.47;;;5.69;74.13
84522;BME280;74758;50.066;20.008;2024-02-21T04:12:31;99826.83;;;5.69;74.43
84522;BME280;74758;50.066;20.008;2024-02-21T04:13:32;99821.77;;;5.69;74.46
84522;BME280;74758;50.066;20.008;2024-02-21T04:14:34;99823.44;;;5.68;74.50
84522;BME280;74758;50.066;20.008;2024-02-21T04:15:36;99822.73;;;5.65;74.28
84522;BME280;74758;50.066;20.008;2024-02-21T04:16:38;99817.23;;;5.63;74.29
84522;BME280;74758;50.066;20.008;2024-02-21T04:17:41;99818.94;;;5.61;74.40
84522;BME280;74758;50.066;20.008;2024-02-21T04:18:43;99813.47;;;5.60;74.58
84522;BME280;74758;50.066;20.008;2024-02-21T04:19:45;99809.73;;;5.58;74.25
84522;BME280;74758;50.066;20.008;2024-02-21T04:20:47;99811.24;;;5.59;74.61
84522;BME280;74758;50.066;20.008;2024-02-21T04:21:49;99813.55;;;5.58;74.48
84522;BME280;74758;50.066;20.008;2024-02-21T04:22:51;99814.30;;;5.57;74.36
84522;BME280;74758;50.066;20.008;2024-02-21T04:23:52;99813.26;;;5.58;74.34
84522;BME280;74758;50.066;20.008;2024-02-21T04:24:54;99815.20;;;5.57;74.40
84522;BME280;74758;50.066;20.008;2024-02-21T04:25:56;99814.30;;;5.57;74.43
84522;BME280;74758;50.066;20.008;2024-02-21T04:26:58;99812.23;;;5.57;74.43
84522;BME280;74758;50.066;20.008;2024-02-21T04:27:59;99809.80;;;5.57;74.53
84522;BME280;74758;50.066;20.008;2024-02-21T04:29:02;99811.05;;;5.56;74.27
84522;BME280;74758;50.066;20.008;2024-02-21T04:30:05;99808.81;;;5.56;74.42
84522;BME280;74758;50.066;20.008;2024-02-21T04:31:07;99805.35;;;5.55;74.31
84522;BME280;74758;50.066;20.008;2024-02-21T04:32:08;99806.83;;;5.54;74.77
84522;BME280;74758;50.066;20.008;2024-02-21T04:33:11;99805.67;;;5.53;74.75
84522;BME280;74758;50.066;20.008;2024-02-21T04:34:13;99801.84;;;5.53;74.53
84522;BME280;74758;50.066;20.008;2024-02-21T04:35:15;99800.25;;;5.53;74.71
84522;BME280;74758;50.066;20.008;2024-02-21T04:36:16;99800.95;;;5.54;74.26
84522;BME280;74758;50.066;20.008;2024-02-21T04:37:18;99796.08;;;5.54;74.31
84522;BME280;74758;50.066;20.008;2024-02-21T04:38:20;99796.73;;;5.54;74.52
84522;BME280;74758;50.066;20.008;2024-02-21T04:39:22;99793.38;;;5.55;74.51
84522;BME280;74758;50.066;20.008;2024-02-21T04:40:24;99790.05;;;5.55;74.37
84522;BME280;74758;50.066;20.008;2024-02-21T04:41:26;99785.58;;;5.54;74.51
84522;BME280;74758;50.066;20.008;2024-02-21T04:42:27;99788.56;;;5.54;74.72
84522;BME280;74758;50.066;20.008;2024-02-21T04:43:29;99791.40;;;5.53;74.44
84522;BME280;74758;50.066;20.008;2024-02-21T04:44:31;99788.09;;;5.53;74.65
84522;BME280;74758;50.066;20.008;2024-02-21T04:45:33;99784.98;;;5.52;74.31
84522;BME280;74758;50.066;20.008;2024-02-21T04:46:35;99787.50;;;5.51;74.56
84522;BME280;74758;50.066;20.008;2024-02-21T04:47:37;99791.34;;;5.51;74.10
84522;BME280;74758;50.066;20.008;2024-02-21T04:48:39;99788.91;;;5.51;74.47
84522;BME280;74758;50.066;20.008;2024-02-21T04:49:40;99789.75;;;5.51;74.82
84522;BME280;74758;50.066;20.008;2024-02-21T04:50:42;99791.62;;;5.52;74.57
84522;BME280;74758;50.066;20.008;2024-02-21T04:51:44;99789.92;;;5.54;74.42
84522;BME280;74758;50.066;20.008;2024-02-21T04:52:46;99794.02;;;5.56;74.42
84522;BME280;74758;50.066;20.008;2024-02-21T04:53:48;99791.30;;;5.57;74.32
84522;BME280;74758;50.066;20.008;2024-02-21T04:54:49;99791.88;;;5.59;74.26
84522;BME280;74758;50.066;20.008;2024-02-21T04:55:51;99792.27;;;5.61;74.53
84522;BME280;74758;50.066;20.008;2024-02-21T04:56:53;99789.77;;;5.62;74.41
84522;BME280;74758;50.066;20.008;2024-02-21T04:57:55;99793.67;;;5.64;74.24
84522;BME280;74758;50.066;20.008;2024-02-21T04:58:57;99791.84;;;5.65;74.29
84522;BME280;74758;50.066;20.008;2024-02-21T04:59:58;99793.70;;;5.66;74.38
84522;BME280;74758;50.066;20.008;2024-02-21T05:01:00;99792.76;;;5.67;74.08
84522;BME280;74758;50.066;20.008;2024-02-21T05:02:03;99793.61;;;5.68;73.79
84522;BME280;74758;50.066;20.008;2024-02-21T05:03:05;99798.25;;;5.69;74.12
84522;BME280;74758;50.066;20.008;2024-02-21T05:04:06;99798.06;;;5.69;74.21
84522;BME280;74758;50.066;20.008;2024-02-21T05:05:09;99803.70;;;5.71;74.04
84522;BME280;74758;50.066;20.008;2024-02-21T05:06:11;99799.11;;;5.72;73.96
84522;BME280;74758;50.066;20.008;2024-02-21T05:07:13;99800.72;;;5.74;73.78
84522;BME280;74758;50.066;20.008;2024-02-21T05:08:15;99802.20;;;5.75;73.50
84522;BME280;74758;50.066;20.008;2024-02-21T05:09:16;99801.89;;;5.78;73.74
84522;BME280;74758;50.066;20.008;2024-02-21T05:10:18;99800.41;;;5.79;73.92
84522;BME280;74758;50.066;20.008;2024-02-21T05:11:21;99803.06;;;5.82;73.63
84522;BME280;74758;50.066;20.008;2024-02-21T05:12:23;99801.94;;;5.83;73.78
84522;BME280;74758;50.066;20.008;2024-02-21T05:13:25;99804.11;;;5.84;73.79
84522;BME280;74758;50.066;20.008;2024-02-21T05:14:27;99805.11;;;5.85;73.50
84522;BME280;74758;50.066;20.008;2024-02-21T05:15:29;99807.30;;;5.87;73.50
84522;BME280;74758;50.066;20.008;2024-02-21T05:16:31;99806.05;;;5.87;73.41
84522;BME280;74758;50.066;20.008;2024-02-21T05:17:33;99803.20;;;5.88;73.56
84522;BME280;74758;50.066;20.008;2024-02-21T05:18:35;99804.91;;;5.89;73.71
84522;BME280;74758;50.066;20.008;2024-02-21T05:19:37;99805.94;;;5.89;73.30
84522;BME280;74758;50.066;20.008;2024-02-21T05:20:39;99808.05;;;5.89;73.55
84522;BME280;74758;50.066;20.008;2024-02-21T05:21:41;99800.92;;;5.88;73.38
84522;BME280;74758;50.066;20.008;2024-02-21T05:22:43;99801.61;;;5.88;73.47
84522;BME280;74758;50.066;20.008;2024-02-21T05:23:45;99798.92;;;5.90;73.43
84522;BME280;74758;50.066;20.008;2024-02-21T05:24:46;99800.63;;;5.90;73.20
84522;BME280;74758;50.066;20.008;2024-02-21T05:25:48;99799.02;;;5.91;73.27
84522;BME280;74758;50.066;20.008;2024-02-21T05:26:50;99801.04;;;5.92;73.07
84522;BME280;74758;50.066;20.008;2024-02-21T05:27:52;99798.18;;;5.94;73.23
84522;BME280;74758;50.066;20.008;2024-02-21T05:28:55;99797.52;;;5.93;73.21